createdAt,value
2018-07-05T07:46:22.671Z,23.55
2018-07-05T07:47:22.542Z,23.66
2018-07-05T07:48:22.829Z,23.66
2018-07-05T07:49:22.505Z,23.75
2018-07-05T07:50:22.459Z,23.83
2018-07-05T07:51:22.527Z,23.98
2018-07-05T07:52:22.400Z,24.13
2018-07-05T07:53:22.575Z,24.16
2018-07-05T07:54:22.372Z,24.08
2018-07-05T07:55:22.351Z,24.02
2018-07-05T07:56:22.337Z,24.12
2018-07-05T07:57:22.316Z,24.22
2018-07-05T07:58:22.397Z,24.22
2018-07-05T07:59:22.334Z,24.34
2018-07-05T08:00:22.303Z,24.34
2018-07-05T08:01:22.273Z,24.31
2018-07-05T08:02:22.272Z,24.09
2018-07-05T08:03:22.346Z,24.06
2018-07-05T08:04:22.252Z,24.00
2018-07-05T08:05:22.307Z,23.87
2018-07-05T08:06:22.231Z,23.84
2018-07-05T08:07:22.236Z,23.75
2018-07-05T08:08:22.275Z,23.85
2018-07-05T08:09:22.369Z,23.88
2018-07-05T08:10:22.193Z,23.80
2018-07-05T08:11:22.189Z,23.98
2018-07-05T08:12:22.215Z,24.13
2018-07-05T08:13:22.236Z,24.06
2018-07-05T08:14:22.231Z,23.94
2018-07-05T08:15:22.178Z,24.05
2018-07-05T08:16:22.121Z,23.98
2018-07-05T08:17:22.119Z,24.02
2018-07-05T08:18:22.130Z,24.15
2018-07-05T08:19:22.581Z,24.27
2018-07-05T08:20:22.132Z,24.31
2018-07-05T08:21:22.249Z,24.43
2018-07-05T08:22:22.194Z,24.53
2018-07-05T08:23:22.035Z,24.49
2018-07-05T08:24:22.103Z,24.31
2018-07-05T08:25:22.021Z,24.45
2018-07-05T08:26:22.011Z,24.35
2018-07-05T08:27:22.582Z,24.39
2018-07-05T08:28:22.004Z,24.32
2018-07-05T08:29:22.073Z,24.25
2018-07-05T08:30:21.973Z,24.15
2018-07-05T08:31:21.965Z,24.24
2018-07-05T08:32:21.944Z,24.35
2018-07-05T08:33:21.970Z,24.30
2018-07-05T08:34:21.998Z,24.42
2018-07-05T08:35:21.912Z,24.50
2018-07-05T08:36:21.918Z,24.53
2018-07-05T08:37:21.883Z,24.60
2018-07-05T08:38:21.883Z,24.69
2018-07-05T08:39:21.932Z,24.64
2018-07-05T08:40:21.871Z,24.73
2018-07-05T08:41:21.893Z,24.58
2018-07-05T08:42:21.832Z,24.55
2018-07-05T08:43:21.815Z,24.61
2018-07-05T08:44:22.045Z,24.52
2018-07-05T08:45:21.809Z,24.52
2018-07-05T08:46:21.993Z,24.49
2018-07-05T08:47:21.848Z,24.58
2018-07-05T08:48:21.788Z,24.42
2018-07-05T08:49:21.828Z,24.39
2018-07-05T08:50:21.748Z,24.35
2018-07-05T08:51:21.739Z,24.31
2018-07-05T08:52:21.729Z,24.27
2018-07-05T08:53:21.716Z,24.25
2018-07-05T08:54:21.801Z,24.22
2018-07-05T08:55:21.695Z,24.28
2018-07-05T08:56:21.685Z,24.25
2018-07-05T08:57:21.709Z,24.34
2018-07-05T08:58:21.877Z,24.39
2018-07-05T08:59:21.718Z,24.37
2018-07-05T09:00:21.636Z,24.45
2018-07-05T09:01:21.622Z,24.39
2018-07-05T09:02:21.706Z,24.40
2018-07-05T09:03:21.611Z,24.30
2018-07-05T09:04:21.786Z,24.40
2018-07-05T09:05:21.680Z,24.50
2018-07-05T09:06:21.579Z,24.45
2018-07-05T09:07:21.568Z,24.34
2018-07-05T09:08:21.551Z,24.45
2018-07-05T09:09:21.605Z,24.45
2018-07-05T09:10:21.541Z,24.43
2018-07-05T09:11:21.506Z,24.39
2018-07-05T09:12:21.510Z,24.32
2018-07-05T09:13:21.486Z,24.32
2018-07-05T09:14:21.567Z,24.32
2018-07-05T09:15:21.491Z,24.31
2018-07-05T09:16:21.481Z,24.40
2018-07-05T09:17:21.527Z,24.43
2018-07-05T09:18:21.609Z,24.52
2018-07-05T09:19:21.515Z,24.53
2018-07-05T09:20:21.423Z,24.49
2018-07-05T09:21:21.423Z,24.49
2018-07-05T09:22:21.426Z,24.55
2018-07-05T09:23:21.442Z,24.45
2018-07-05T09:24:21.445Z,24.45
2018-07-05T09:25:21.366Z,24.57
2018-07-05T09:26:21.358Z,24.60
2018-07-05T09:27:21.358Z,24.83
2018-07-05T09:28:21.329Z,24.88
2018-07-05T09:29:21.375Z,24.90
2018-07-05T09:30:21.301Z,24.98
2018-07-05T09:31:21.313Z,24.98
2018-07-05T09:32:21.288Z,24.93
2018-07-05T09:33:21.272Z,24.96
2018-07-05T09:34:21.330Z,25.00
2018-07-05T09:35:21.257Z,24.87
2018-07-05T09:36:21.244Z,24.71
2018-07-05T09:37:21.282Z,24.73
2018-07-05T09:38:21.219Z,24.78
2018-07-05T09:39:21.260Z,24.85
2018-07-05T09:40:21.191Z,24.88
2018-07-05T09:41:21.181Z,24.98
2018-07-05T09:42:21.173Z,24.88
2018-07-05T09:43:21.160Z,24.98
2018-07-05T09:44:21.211Z,24.84
2018-07-05T09:45:21.140Z,24.93
2018-07-05T09:46:21.135Z,24.80
2018-07-05T09:47:21.119Z,24.67
2018-07-05T09:48:21.111Z,24.67
2018-07-05T09:49:21.154Z,24.80
2018-07-05T09:50:21.093Z,24.85
2018-07-05T09:51:21.074Z,24.85
2018-07-05T09:52:21.127Z,25.05
2018-07-05T09:53:21.052Z,24.98
2018-07-05T09:54:21.045Z,25.05
2018-07-05T09:55:21.089Z,25.00
2018-07-05T09:56:21.028Z,25.09
2018-07-05T09:57:21.009Z,25.15
2018-07-05T09:58:21.001Z,25.14
2018-07-05T09:59:20.990Z,25.09
2018-07-05T10:00:21.201Z,25.18
2018-07-05T10:01:20.967Z,25.17
2018-07-05T10:02:20.956Z,25.20
2018-07-05T10:03:20.952Z,25.18
2018-07-05T10:04:20.938Z,25.14
2018-07-05T10:05:20.981Z,25.20
2018-07-05T10:06:20.914Z,25.18
2018-07-05T10:07:20.911Z,25.17
2018-07-05T10:08:20.912Z,25.08
2018-07-05T10:09:21.177Z,25.00
2018-07-05T10:10:21.002Z,25.00
2018-07-05T10:11:20.953Z,25.15
2018-07-05T10:12:20.874Z,25.08
2018-07-05T10:13:20.907Z,25.15
2018-07-05T10:14:20.845Z,25.25
2018-07-05T10:15:20.910Z,25.35
2018-07-05T10:16:20.826Z,25.38
2018-07-05T10:17:20.823Z,25.45
2018-07-05T10:18:20.798Z,25.46
2018-07-05T10:19:20.803Z,25.42
2018-07-05T10:20:21.160Z,25.45
2018-07-05T10:21:20.763Z,25.54
2018-07-05T10:22:20.761Z,25.50
2018-07-05T10:23:20.745Z,25.57
2018-07-05T10:24:20.735Z,25.61
2018-07-05T10:25:20.791Z,25.57
2018-07-05T10:26:20.712Z,25.62
2018-07-05T10:27:20.787Z,25.75
2018-07-05T10:28:20.696Z,25.82
2018-07-05T10:29:20.687Z,25.94
2018-07-05T10:30:20.750Z,25.90
2018-07-05T10:31:20.687Z,26.10
2018-07-05T10:32:20.645Z,25.97
2018-07-05T10:33:20.635Z,25.98
2018-07-05T10:34:20.907Z,26.13
2018-07-05T10:35:20.695Z,26.09
2018-07-05T10:36:20.607Z,26.21
2018-07-05T10:37:20.605Z,26.13
2018-07-05T10:38:20.750Z,26.18
2018-07-05T10:39:20.570Z,26.39
2018-07-05T10:40:20.663Z,26.29
2018-07-05T10:41:20.547Z,26.17
2018-07-05T10:42:20.548Z,26.15
2018-07-05T10:43:20.536Z,26.10
2018-07-05T10:44:20.519Z,26.13
2018-07-05T10:45:20.585Z,26.26
2018-07-05T10:46:20.518Z,26.33
2018-07-05T10:47:20.538Z,26.25
2018-07-05T10:48:20.500Z,26.20
2018-07-05T10:49:20.474Z,26.01
2018-07-05T10:50:20.530Z,25.97
2018-07-05T10:51:20.503Z,25.92
2018-07-05T10:52:20.436Z,26.05
2018-07-05T10:53:20.415Z,26.05
2018-07-05T10:54:20.415Z,26.05
2018-07-05T10:55:20.549Z,26.10
2018-07-05T10:56:20.423Z,26.09
2018-07-05T10:57:20.382Z,26.25
2018-07-05T10:58:20.360Z,26.44
2018-07-05T10:59:20.774Z,26.62
2018-07-05T11:00:20.492Z,26.52
2018-07-05T11:01:20.316Z,26.55
2018-07-05T11:02:20.324Z,26.51
2018-07-05T11:03:20.307Z,26.48
2018-07-05T11:04:20.301Z,26.44
2018-07-05T11:05:20.365Z,26.50
2018-07-05T11:06:20.278Z,26.45
2018-07-05T11:07:20.271Z,26.48
2018-07-05T11:08:20.259Z,26.44
2018-07-05T11:09:20.262Z,26.35
2018-07-05T11:10:20.318Z,26.07
2018-07-05T11:11:20.228Z,26.18
2018-07-05T11:12:20.213Z,26.25
2018-07-05T11:13:20.200Z,26.23
2018-07-05T11:14:20.229Z,26.28
2018-07-05T11:15:20.332Z,26.09
2018-07-05T11:16:20.166Z,26.07
2018-07-05T11:17:20.154Z,26.02
2018-07-05T11:18:20.141Z,26.20
2018-07-05T11:19:20.135Z,26.39
2018-07-05T11:20:20.188Z,26.33
2018-07-05T11:21:20.662Z,26.35
2018-07-05T11:22:20.102Z,26.32
2018-07-05T11:23:20.790Z,26.57
2018-07-05T11:24:20.082Z,26.66
2018-07-05T11:25:20.137Z,26.69
2018-07-05T11:26:20.060Z,26.80
2018-07-05T11:27:20.033Z,26.72
2018-07-05T11:28:20.042Z,26.76
2018-07-05T11:29:20.023Z,26.91
2018-07-05T11:30:20.193Z,26.92
2018-07-05T11:31:20.039Z,26.88
2018-07-05T11:32:19.992Z,26.73
2018-07-05T11:33:19.975Z,26.80
2018-07-05T11:34:20.532Z,26.85
2018-07-05T11:35:20.036Z,26.97
2018-07-05T11:36:19.956Z,26.91
2018-07-05T11:37:19.931Z,26.84
2018-07-05T11:38:19.940Z,26.82
2018-07-05T11:39:19.917Z,26.82
2018-07-05T11:40:19.903Z,26.72
2018-07-05T11:41:19.969Z,26.82
2018-07-05T11:42:19.894Z,26.80
2018-07-05T11:43:19.878Z,26.87
2018-07-05T11:44:19.864Z,26.89
2018-07-05T11:45:19.849Z,26.99
2018-07-05T11:46:19.915Z,27.21
2018-07-05T11:47:19.838Z,27.37
2018-07-05T11:48:20.316Z,27.47
2018-07-05T11:49:20.530Z,27.69
2018-07-05T11:50:19.793Z,27.79
2018-07-05T11:51:19.864Z,27.84
2018-07-05T11:52:19.934Z,27.92
2018-07-05T11:53:19.756Z,27.97
2018-07-05T11:54:24.531Z,27.93
2018-07-05T11:55:19.736Z,27.82
2018-07-05T11:56:19.806Z,27.60
2018-07-05T11:57:19.720Z,27.57
2018-07-05T11:58:19.710Z,27.62
2018-07-05T11:59:19.705Z,27.72
2018-07-05T12:00:19.687Z,27.81
2018-07-05T12:01:19.763Z,27.92
2018-07-05T12:02:19.791Z,27.85
2018-07-05T12:03:19.661Z,27.77
2018-07-05T12:04:19.665Z,27.60
2018-07-05T12:05:19.638Z,27.65
2018-07-05T12:06:19.716Z,27.55
2018-07-05T12:07:19.617Z,27.63
2018-07-05T12:08:19.604Z,27.54
2018-07-05T12:09:19.589Z,27.37
2018-07-05T12:10:19.577Z,27.32
2018-07-05T12:11:19.630Z,27.03
2018-07-05T12:12:19.561Z,26.81
2018-07-05T12:13:19.543Z,26.77
2018-07-05T12:14:19.648Z,26.58
2018-07-05T12:15:19.542Z,26.52
2018-07-05T12:16:19.590Z,26.47
2018-07-05T12:17:19.508Z,26.44
2018-07-05T12:18:19.500Z,26.29
2018-07-05T12:19:19.618Z,26.29
2018-07-05T12:20:19.474Z,26.35
2018-07-05T12:21:19.554Z,26.23
2018-07-05T12:22:19.447Z,26.15
2018-07-05T12:23:19.447Z,26.17
2018-07-05T12:24:19.463Z,26.06
2018-07-05T12:25:19.433Z,26.09
2018-07-05T12:26:19.482Z,26.23
2018-07-05T12:27:19.390Z,26.26
2018-07-05T12:28:19.382Z,26.35
2018-07-05T12:29:19.458Z,26.37
2018-07-05T12:30:19.466Z,26.35
2018-07-05T12:31:19.432Z,26.23
2018-07-05T12:32:19.337Z,26.17
2018-07-05T12:33:19.338Z,26.21
2018-07-05T12:34:19.312Z,26.23
2018-07-05T12:35:19.296Z,26.32
2018-07-05T12:36:19.410Z,26.26
2018-07-05T12:37:19.284Z,26.33
2018-07-05T12:38:19.431Z,26.39
2018-07-05T12:39:19.276Z,26.43
2018-07-05T12:40:19.308Z,26.54
2018-07-05T12:41:19.288Z,26.62
2018-07-05T12:42:19.281Z,26.67
2018-07-05T12:43:19.210Z,26.67
2018-07-05T12:44:19.203Z,26.77
2018-07-05T12:45:19.197Z,26.77
2018-07-05T12:46:19.297Z,26.91
2018-07-05T12:47:19.168Z,26.88
2018-07-05T12:48:19.170Z,26.92
2018-07-05T12:49:19.145Z,26.82
2018-07-05T12:50:19.130Z,26.77
2018-07-05T12:51:19.177Z,26.66
2018-07-05T12:52:19.111Z,26.84
2018-07-05T12:53:19.100Z,26.87
2018-07-05T12:54:19.093Z,26.84
2018-07-05T12:55:19.075Z,26.95
2018-07-05T12:56:19.119Z,26.94
2018-07-05T12:57:19.062Z,26.81
2018-07-05T12:58:19.212Z,26.87
2018-07-05T12:59:19.037Z,26.81
2018-07-05T13:00:19.079Z,26.81
2018-07-05T13:01:19.069Z,26.88
2018-07-05T13:02:19.044Z,26.81
2018-07-05T13:03:19.116Z,26.87
2018-07-05T13:04:19.102Z,26.88
2018-07-05T13:05:18.968Z,27.02
2018-07-05T13:06:19.018Z,27.13
2018-07-05T13:07:18.957Z,27.10
2018-07-05T13:08:19.021Z,27.18
2018-07-05T13:09:19.108Z,27.17
2018-07-05T13:10:18.998Z,27.07
2018-07-05T13:11:19.338Z,26.89
2018-07-05T13:12:18.901Z,26.80
2018-07-05T13:13:19.137Z,26.82
2018-07-05T13:14:18.884Z,26.72
2018-07-05T13:15:18.867Z,26.66
2018-07-05T13:16:18.947Z,26.62
2018-07-05T13:17:18.854Z,26.62
2018-07-05T13:18:18.842Z,26.51
2018-07-05T13:19:18.816Z,26.60
2018-07-05T13:20:18.812Z,26.58
2018-07-05T13:21:18.994Z,26.65
2018-07-05T13:22:18.932Z,26.77
2018-07-05T13:23:18.803Z,26.58
2018-07-05T13:24:19.003Z,26.72
2018-07-05T13:25:18.750Z,26.65
2018-07-05T13:26:18.748Z,26.58
2018-07-05T13:27:18.806Z,26.63
2018-07-05T13:28:18.728Z,26.60
2018-07-05T13:29:18.712Z,26.73
2018-07-05T13:30:18.712Z,26.69
2018-07-05T13:31:18.690Z,26.76
2018-07-05T13:32:18.754Z,26.73
2018-07-05T13:33:18.667Z,26.76
2018-07-05T13:34:18.667Z,26.77
2018-07-05T13:35:18.642Z,26.81
2018-07-05T13:36:18.641Z,26.77
2018-07-05T13:37:18.703Z,26.81
2018-07-05T13:38:18.610Z,26.76
2018-07-05T13:39:18.606Z,26.66
2018-07-05T13:40:18.604Z,26.63
2018-07-05T13:41:18.582Z,26.60
2018-07-05T13:42:18.780Z,26.62
2018-07-05T13:43:18.568Z,26.63
2018-07-05T13:44:18.551Z,26.66
2018-07-05T13:45:18.580Z,26.82
2018-07-05T13:46:18.534Z,26.87
2018-07-05T13:47:18.595Z,26.72
2018-07-05T13:48:18.511Z,26.63
2018-07-05T13:49:18.496Z,26.70
2018-07-05T13:50:18.484Z,26.65
2018-07-05T13:51:18.479Z,26.81
2018-07-05T13:52:18.526Z,26.76
2018-07-05T13:53:18.449Z,26.89
2018-07-05T13:54:18.440Z,26.77
2018-07-05T13:55:18.425Z,26.91
2018-07-05T13:56:18.421Z,26.92
2018-07-05T13:57:18.517Z,26.88
2018-07-05T13:58:18.424Z,26.89
2018-07-05T13:59:18.386Z,26.92
2018-07-05T14:00:18.376Z,27.04
2018-07-05T14:01:18.398Z,26.91
2018-07-05T14:02:18.423Z,26.87
2018-07-05T14:03:18.349Z,26.81
2018-07-05T14:04:18.327Z,26.84
2018-07-05T14:05:18.326Z,26.92
2018-07-05T14:06:18.310Z,26.87
2018-07-05T14:07:18.380Z,26.84
2018-07-05T14:08:18.320Z,26.66
2018-07-05T14:09:18.346Z,26.69
2018-07-05T14:10:18.264Z,26.55
2018-07-05T14:11:18.244Z,26.52
2018-07-05T14:12:18.306Z,26.55
2018-07-05T14:13:18.231Z,26.58
2018-07-05T14:14:18.220Z,26.55
2018-07-05T14:15:18.215Z,26.63
2018-07-05T14:16:18.210Z,26.60
2018-07-05T14:17:18.374Z,26.60
2018-07-05T14:18:18.224Z,26.70
2018-07-05T14:19:18.175Z,26.69
2018-07-05T14:20:18.165Z,26.80
2018-07-05T14:21:18.151Z,26.80
2018-07-05T14:22:18.332Z,27.03
2018-07-05T14:23:19.442Z,27.10
2018-07-05T14:24:18.118Z,27.19
2018-07-05T14:25:18.231Z,27.25
2018-07-05T14:26:18.099Z,27.29
2018-07-05T14:27:18.157Z,27.24
2018-07-05T14:28:18.071Z,27.25
2018-07-05T14:29:18.086Z,27.17
2018-07-05T14:30:18.051Z,27.24
2018-07-05T14:31:18.043Z,27.10
2018-07-05T14:32:18.200Z,27.04
2018-07-05T14:33:18.122Z,26.91
2018-07-05T14:34:18.009Z,26.91
2018-07-05T14:35:18.171Z,26.81
2018-07-05T14:36:18.081Z,26.89
2018-07-05T14:37:18.532Z,26.81
2018-07-05T14:38:18.224Z,26.81
2018-07-05T14:39:17.981Z,26.81
2018-07-05T14:40:17.951Z,26.80
2018-07-05T14:41:17.938Z,26.63
2018-07-05T14:42:18.175Z,26.62
2018-07-05T14:43:18.218Z,26.51
2018-07-05T14:44:18.548Z,26.50
2018-07-05T14:45:18.164Z,26.51
2018-07-05T14:46:18.084Z,26.47
2018-07-05T14:47:18.064Z,26.51
2018-07-05T14:48:18.022Z,26.48
2018-07-05T14:49:17.838Z,26.54
2018-07-05T14:50:18.050Z,26.44
2018-07-05T14:51:17.994Z,26.51
2018-07-05T14:52:18.157Z,26.51
2018-07-05T14:53:18.044Z,26.47
2018-07-05T14:54:17.816Z,26.58
2018-07-05T14:55:17.794Z,26.55
2018-07-05T14:56:18.030Z,26.57
2018-07-05T14:57:17.914Z,26.57
2018-07-05T14:58:18.775Z,26.50
2018-07-05T14:59:18.666Z,26.58
2018-07-05T15:00:17.814Z,26.50
2018-07-05T15:01:17.795Z,26.48
2018-07-05T15:02:17.696Z,26.57
2018-07-05T15:03:18.383Z,26.57
2018-07-05T15:04:17.719Z,26.55
2018-07-05T15:05:18.277Z,26.50
2018-07-05T15:06:17.815Z,26.50
2018-07-05T15:07:18.100Z,26.47
2018-07-05T15:08:17.707Z,26.48
2018-07-05T15:09:17.804Z,26.60
2018-07-05T15:10:17.733Z,26.55
2018-07-05T15:13:17.476Z,26.47
2018-07-05T15:14:16.961Z,26.52
2018-07-05T15:15:17.110Z,26.30
2018-07-05T15:16:16.903Z,26.45
2018-07-05T15:17:16.838Z,26.39
2018-07-05T15:18:16.914Z,26.30
2018-07-05T15:19:16.829Z,26.35
2018-07-05T15:20:16.815Z,26.37
2018-07-05T15:21:16.779Z,26.30
2018-07-05T15:22:16.761Z,26.29
2018-07-05T15:23:17.037Z,26.28
2018-07-05T15:24:17.154Z,26.32
2018-07-05T15:25:16.967Z,26.29
2018-07-05T15:26:16.721Z,26.29
2018-07-05T15:27:17.135Z,26.13
2018-07-05T15:28:16.789Z,26.10
2018-07-05T15:29:19.919Z,26.18
2018-07-05T15:30:25.304Z,26.12
2018-07-05T15:31:16.765Z,26.12
2018-07-05T15:34:25.312Z,26.01
2018-07-05T15:35:23.561Z,25.95
2018-07-05T15:36:23.559Z,25.97
2018-07-05T15:37:23.594Z,25.92
2018-07-05T15:38:23.374Z,25.85
2018-07-05T15:39:23.425Z,25.92
2018-07-05T15:40:23.390Z,25.90
2018-07-05T15:41:25.137Z,25.90
2018-07-05T15:42:23.416Z,25.90
2018-07-05T15:43:23.499Z,25.87
2018-07-05T15:44:23.241Z,25.91
2018-07-05T15:45:23.235Z,25.87
2018-07-05T15:46:23.213Z,25.82
2018-07-05T15:47:23.418Z,25.82
2018-07-05T15:48:23.247Z,25.82
2018-07-05T15:49:23.186Z,25.80
2018-07-05T15:50:23.176Z,25.73
2018-07-05T15:51:23.187Z,25.76
2018-07-05T15:52:23.166Z,25.75
2018-07-05T15:53:23.240Z,25.79
2018-07-05T15:54:23.222Z,25.67
2018-07-05T15:55:23.124Z,25.75
2018-07-05T15:56:23.110Z,25.80
2018-07-05T15:57:23.100Z,25.75
2018-07-05T15:58:23.178Z,25.76
2018-07-05T15:59:23.254Z,25.76
2018-07-05T16:00:23.084Z,25.72
2018-07-05T16:01:23.070Z,25.67
2018-07-05T16:02:23.098Z,25.70
2018-07-05T16:03:23.122Z,25.64
2018-07-05T16:04:23.041Z,25.65
2018-07-05T16:05:23.036Z,25.64
2018-07-05T16:06:23.019Z,25.62
2018-07-05T16:07:22.993Z,25.64
2018-07-05T16:08:23.059Z,25.60
2018-07-05T16:09:23.415Z,25.61
2018-07-05T16:10:23.044Z,25.62
2018-07-05T16:11:22.964Z,25.62
2018-07-05T16:12:22.943Z,25.60
2018-07-05T16:13:22.929Z,25.58
2018-07-05T16:14:22.978Z,25.50
2018-07-05T16:15:22.922Z,25.57
2018-07-05T16:16:22.907Z,25.64
2018-07-05T16:17:22.899Z,25.58
2018-07-05T16:18:22.895Z,25.60
2018-07-05T16:19:23.028Z,25.61
2018-07-05T16:20:22.871Z,25.60
2018-07-05T16:21:22.860Z,25.62
2018-07-05T16:22:22.833Z,25.62
2018-07-05T16:23:22.823Z,25.65
2018-07-05T16:24:23.509Z,25.61
2018-07-05T16:25:22.839Z,25.65
2018-07-05T16:26:23.736Z,25.57
2018-07-05T16:27:23.122Z,25.51
2018-07-05T16:28:22.880Z,25.50
2018-07-05T16:29:22.840Z,25.50
2018-07-05T16:30:22.759Z,25.54
2018-07-05T16:31:22.751Z,25.47
2018-07-05T16:32:22.734Z,25.51
2018-07-05T16:33:22.965Z,25.50
2018-07-05T16:34:22.887Z,25.47
2018-07-05T16:35:22.886Z,25.52
2018-07-05T16:36:22.693Z,25.46
2018-07-05T16:37:22.687Z,25.50
2018-07-05T16:38:22.665Z,25.47
2018-07-05T16:39:22.722Z,25.36
2018-07-05T16:40:22.634Z,25.43
2018-07-05T16:41:22.651Z,25.46
2018-07-05T16:42:22.725Z,25.32
2018-07-05T16:43:22.653Z,25.39
2018-07-05T16:44:22.695Z,25.23
2018-07-05T16:45:22.594Z,25.24
2018-07-05T16:46:22.602Z,25.15
2018-07-05T16:47:22.587Z,25.09
2018-07-05T16:48:22.565Z,25.08
2018-07-05T16:49:22.669Z,25.09
2018-07-05T16:50:22.587Z,25.02
2018-07-05T16:51:23.800Z,24.91
2018-07-05T16:52:22.530Z,24.93
2018-07-05T16:53:22.634Z,24.81
2018-07-05T16:54:22.550Z,24.81
2018-07-05T16:55:22.481Z,24.68
2018-07-05T16:56:22.484Z,24.55
2018-07-05T16:57:22.480Z,24.50
2018-07-05T16:58:22.448Z,24.46
2018-07-05T16:59:22.519Z,24.46
2018-07-05T17:00:22.432Z,24.55
2018-07-05T17:01:22.422Z,24.52
2018-07-05T17:02:22.406Z,24.53
2018-07-05T17:03:22.400Z,24.49
2018-07-05T17:04:22.454Z,24.58
2018-07-05T17:05:22.488Z,24.52
2018-07-05T17:06:22.366Z,24.49
2018-07-05T17:07:22.338Z,24.53
2018-07-05T17:08:22.335Z,24.50
2018-07-05T17:09:22.381Z,24.49
2018-07-05T17:10:22.307Z,24.52
2018-07-05T17:11:22.297Z,24.42
2018-07-05T17:12:22.283Z,24.47
2018-07-05T17:13:22.288Z,24.50
2018-07-05T17:14:22.358Z,24.52
2018-07-05T17:15:22.279Z,24.55
2018-07-05T17:16:22.252Z,24.40
2018-07-05T17:17:22.236Z,24.43
2018-07-05T17:18:22.220Z,24.45
2018-07-05T17:19:22.275Z,24.46
2018-07-05T17:20:22.200Z,24.37
2018-07-05T17:21:22.187Z,24.46
2018-07-05T17:22:22.179Z,24.46
2018-07-05T17:23:22.167Z,24.47
2018-07-05T17:24:22.152Z,24.45
2018-07-05T17:25:22.233Z,24.43
2018-07-05T17:26:22.146Z,24.47
2018-07-05T17:27:22.181Z,24.43
2018-07-05T17:28:22.136Z,24.43
2018-07-05T17:29:22.134Z,24.45
2018-07-05T17:30:22.151Z,24.42
2018-07-05T17:31:22.075Z,24.43
2018-07-05T17:32:22.122Z,24.45
2018-07-05T17:33:22.061Z,24.32
2018-07-05T17:34:22.044Z,24.37
2018-07-05T17:35:22.109Z,24.27
2018-07-05T17:36:22.029Z,24.27
2018-07-05T17:37:22.020Z,24.25
2018-07-05T17:38:22.007Z,24.24
2018-07-05T17:39:22.013Z,24.31
2018-07-05T17:40:22.057Z,24.22
2018-07-05T17:41:21.974Z,24.31
2018-07-05T17:42:21.968Z,24.20
2018-07-05T17:43:21.965Z,24.24
2018-07-05T17:44:21.946Z,24.16
2018-07-05T17:45:22.007Z,24.20
2018-07-05T17:46:21.933Z,24.21
2018-07-05T17:47:21.908Z,24.10
2018-07-05T17:48:21.899Z,24.08
2018-07-05T17:49:21.888Z,24.05
2018-07-05T17:50:21.957Z,24.00
2018-07-05T17:51:21.870Z,23.95
2018-07-05T17:52:21.865Z,23.85
2018-07-05T17:53:21.843Z,23.87
2018-07-05T17:54:21.836Z,23.84
2018-07-05T17:55:22.640Z,23.78
2018-07-05T17:56:21.811Z,23.78
2018-07-05T17:57:21.979Z,23.68
2018-07-05T17:58:21.801Z,23.66
2018-07-05T17:59:21.957Z,23.63
2018-07-05T18:00:21.856Z,23.68
2018-07-05T18:01:21.775Z,23.65
2018-07-05T18:02:21.746Z,23.66
2018-07-05T18:03:21.739Z,23.65
2018-07-05T18:04:21.721Z,23.65
2018-07-05T18:05:21.818Z,23.60
2018-07-05T18:06:21.705Z,23.70
2018-07-05T18:07:21.698Z,23.66
2018-07-05T18:08:21.683Z,23.68
2018-07-05T18:09:21.678Z,23.76
2018-07-05T18:10:21.724Z,23.83
2018-07-05T18:11:21.649Z,23.83
2018-07-05T18:12:21.636Z,23.69
2018-07-05T18:13:21.626Z,23.76
2018-07-05T18:14:21.616Z,23.76
2018-07-05T18:15:21.677Z,23.83
2018-07-05T18:16:21.589Z,23.78
2018-07-05T18:17:21.569Z,23.70
2018-07-05T18:18:21.575Z,23.70
2018-07-05T18:19:21.560Z,23.75
2018-07-05T18:20:21.627Z,23.73
2018-07-05T18:21:21.539Z,23.70
2018-07-05T18:22:21.526Z,23.78
2018-07-05T18:23:21.515Z,23.93
2018-07-05T18:24:21.501Z,24.10
2018-07-05T18:25:21.570Z,24.20
2018-07-05T18:26:21.481Z,24.30
2018-07-05T18:27:21.562Z,24.27
2018-07-05T18:28:21.459Z,24.12
2018-07-05T18:29:21.438Z,24.02
2018-07-05T18:30:21.714Z,23.95
2018-07-05T18:31:21.432Z,23.85
2018-07-05T18:32:21.420Z,23.73
2018-07-05T18:33:21.406Z,23.68
2018-07-05T18:34:21.411Z,23.63
2018-07-05T18:35:21.457Z,23.57
2018-07-05T18:36:21.371Z,23.53
2018-07-05T18:37:21.362Z,23.42
2018-07-05T18:38:21.345Z,23.36
2018-07-05T18:39:21.339Z,23.39
2018-07-05T18:40:21.409Z,23.40
2018-07-05T18:41:21.361Z,23.40
2018-07-05T18:42:21.304Z,23.39
2018-07-05T18:43:21.296Z,23.42
2018-07-05T18:44:23.103Z,23.32
2018-07-05T18:45:21.342Z,23.31
2018-07-05T18:46:21.265Z,23.36
2018-07-05T18:47:21.259Z,23.38
2018-07-05T18:48:21.247Z,23.31
2018-07-05T18:49:21.226Z,23.38
2018-07-05T18:50:21.290Z,23.33
2018-07-05T18:51:21.217Z,23.31
2018-07-05T18:52:21.192Z,23.38
2018-07-05T18:53:21.184Z,23.28
2018-07-05T18:54:21.182Z,23.22
2018-07-05T18:55:21.230Z,23.27
2018-07-05T18:56:21.158Z,23.15
2018-07-05T18:57:21.142Z,23.23
2018-07-05T18:58:21.177Z,23.22
2018-07-05T18:59:21.137Z,23.22
2018-07-05T19:00:21.199Z,23.16
2018-07-05T19:01:21.092Z,23.22
2018-07-05T19:02:21.088Z,23.17
2018-07-05T19:03:21.074Z,23.19
2018-07-05T19:04:21.062Z,23.17
2018-07-05T19:05:21.054Z,23.13
2018-07-05T19:06:21.112Z,23.15
2018-07-05T19:07:21.034Z,23.12
2018-07-05T19:08:21.020Z,23.23
2018-07-05T19:09:21.013Z,23.23
2018-07-05T19:10:20.995Z,23.19
2018-07-05T19:11:21.065Z,23.19
2018-07-05T19:12:20.976Z,23.04
2018-07-05T19:13:20.962Z,23.01
2018-07-05T19:14:20.950Z,23.00
2018-07-05T19:15:20.944Z,22.97
2018-07-05T19:16:21.134Z,22.91
2018-07-05T19:17:20.926Z,22.92
2018-07-05T19:18:20.909Z,22.88
2018-07-05T19:19:20.900Z,22.86
2018-07-05T19:20:20.890Z,22.85
2018-07-05T19:21:20.997Z,22.82
2018-07-05T19:22:20.866Z,22.79
2018-07-05T19:23:20.851Z,22.65
2018-07-05T19:24:20.842Z,22.72
2018-07-05T19:25:20.835Z,22.62
2018-07-05T19:26:20.895Z,22.61
2018-07-05T19:27:20.810Z,22.62
2018-07-05T19:28:20.807Z,22.54
2018-07-05T19:29:20.793Z,22.54
2018-07-05T19:30:20.800Z,22.46
2018-07-05T19:31:20.840Z,22.55
2018-07-05T19:32:20.757Z,22.51
2018-07-05T19:33:20.793Z,22.49
2018-07-05T19:34:20.790Z,22.40
2018-07-05T19:35:20.721Z,22.51
2018-07-05T19:36:20.781Z,22.35
2018-07-05T19:37:20.702Z,22.36
2018-07-05T19:38:20.692Z,22.31
2018-07-05T19:39:20.677Z,22.35
2018-07-05T19:40:20.670Z,22.24
2018-07-05T19:41:20.732Z,22.14
2018-07-05T19:42:20.647Z,22.15
2018-07-05T19:43:20.636Z,22.12
2018-07-05T19:44:20.625Z,22.02
2018-07-05T19:45:20.623Z,22.05
2018-07-05T19:46:20.663Z,22.02
2018-07-05T19:47:20.593Z,22.06
2018-07-05T19:48:20.579Z,21.98
2018-07-05T19:49:20.570Z,21.90
2018-07-05T19:50:20.561Z,21.99
2018-07-05T19:51:20.643Z,21.94
2018-07-05T19:52:20.532Z,21.86
2018-07-05T19:53:20.528Z,21.83
2018-07-05T19:54:20.512Z,21.84
2018-07-05T19:55:20.501Z,21.71
2018-07-05T19:56:20.569Z,21.71
2018-07-05T19:57:20.487Z,21.61
2018-07-05T19:58:20.476Z,21.61
2018-07-05T19:59:20.459Z,21.74
2018-07-05T20:00:20.474Z,21.59
2018-07-05T20:01:20.512Z,21.64
2018-07-05T20:02:20.426Z,21.58
2018-07-05T20:03:20.410Z,21.61
2018-07-05T20:04:20.404Z,21.59
2018-07-05T20:05:20.393Z,21.61
2018-07-05T20:06:20.457Z,21.56
2018-07-05T20:07:20.443Z,21.50
2018-07-05T20:08:20.376Z,21.50
2018-07-05T20:09:20.372Z,21.40
2018-07-05T20:10:20.339Z,21.35
2018-07-05T20:11:20.401Z,21.28
2018-07-05T20:12:20.320Z,21.07
2018-07-05T20:13:20.340Z,21.14
2018-07-05T20:14:20.300Z,21.01
2018-07-05T20:15:20.280Z,21.01
2018-07-05T20:16:20.333Z,20.95
2018-07-05T20:17:20.261Z,20.98
2018-07-05T20:18:20.245Z,20.89
2018-07-05T20:19:20.237Z,20.82
2018-07-05T20:20:20.225Z,20.79
2018-07-05T20:21:20.286Z,20.72
2018-07-05T20:22:20.209Z,20.76
2018-07-05T20:23:20.192Z,20.77
2018-07-05T20:24:20.190Z,20.66
2018-07-05T20:25:20.178Z,20.64
2018-07-05T20:26:20.232Z,20.64
2018-07-05T20:27:20.152Z,20.74
2018-07-05T20:28:20.141Z,20.79
2018-07-05T20:29:20.125Z,20.79
2018-07-05T20:30:20.353Z,20.73
2018-07-05T20:31:20.169Z,20.59
2018-07-05T20:32:20.092Z,20.59
2018-07-05T20:33:20.080Z,20.52
2018-07-05T20:34:20.071Z,20.59
2018-07-05T20:35:20.071Z,20.55
2018-07-05T20:36:20.127Z,20.55
2018-07-05T20:37:20.044Z,20.51
2018-07-05T20:38:20.021Z,20.48
2018-07-05T20:39:20.017Z,20.50
2018-07-05T20:40:20.005Z,20.47
2018-07-05T20:41:20.079Z,20.47
2018-07-05T20:42:19.986Z,20.42